Naikai2 — JD2433 — position and weather

sailwx.info

Track history (hours):
 
Tides and Currents Weather Stations Pressure Air Temp Water Temp Dewpoint Dewpoint Depression Visibility Wind Speed Wind Dir Waves Ship Positions

Naikai2

Last reported at 2016-Feb-06 04:25 UTC. Time now 2016-Feb-08 12:30 UTC.
Position N 34°39' E 135°10'.

Length 28 m; draft 2.2 m.

Type: Other ship. MMSI: 431000283.

Date/timePositionNaut miles runAvg speedWind from/ knotsBaromVisibWave heightAir tempDewpointWater temp
2016-Feb-06 04:25N 34°39' E 135°10'1214.4
2016-Feb-06 03:33N 34°27' E 135°05'1110.7
2016-Feb-06 02:30N 34°17' E 134°58'1313.7
2016-Feb-06 01:33N 34°27' E 135°08'1312.5
2016-Feb-06 00:33N 34°33' E 135°21'1 1.4
2016-Feb-05 23:33N 34°34' E 135°23'1111.6
2016-Feb-05 22:33N 34°39' E 135°10'4 0.3
2016-Feb-05 07:33N 34°35' E 135°09'1914.8
2016-Feb-05 06:18N 34°18' E 134°60'6 6.3
2016-Feb-05 05:24N 34°23' E 135°02'1315.7
2016-Feb-05 04:33N 34°31' E 135°15'7 7.4
2016-Feb-05 03:33N 34°33' E 135°24'2 0.6
2016-Feb-05 00:15N 34°31' E 135°24'3 3.6
2016-Feb-04 23:31N 34°33' E 135°22'9 9.8
2016-Feb-04 22:33N 34°29' E 135°12'1812.7
2016-Feb-04 21:09N 34°15' E 134°59'2 3.8
2016-Feb-04 20:33N 34°13' E 134°60'1312.7
2016-Feb-04 19:33N 34°25' E 135°02'1413.9
2016-Feb-04 18:33N 34°38' E 135°09'1 0.1
2016-Feb-04 04:26N 34°39' E 135°10'5 5.8
2016-Feb-04 03:33N 34°38' E 135°16'9 4.4
2016-Feb-04 01:32N 34°29' E 135°13'1813.4
2016-Feb-04 00:11N 34°15' E 134°59'2 1.8
2016-Feb-03 23:06N 34°17' E 134°58'814.0
2016-Feb-03 22:32N 34°25' E 135°02'1414.0
2016-Feb-03 21:33N 34°37' E 135°09'2 0.0
2016-Feb-01 19:30N 34°39' E 135°10'1212.2
2016-Feb-01 18:32N 34°37' E 134°56'9 9.6
2016-Feb-01 17:33N 34°35' E 135°07'5 5.0
2016-Feb-01 16:33N 34°39' E 135°10'7 0.7
2016-Feb-01 05:30N 34°36' E 135°02'1 1.5
2016-Feb-01 04:31N 34°38' E 135°01'2 2.2
2016-Feb-01 03:33N 34°38' E 135°03'0 0.0
2016-Feb-01 02:33N 34°38' E 135°03'0 0.0
2016-Feb-01 01:33N 34°38' E 135°03'3 3.0
2016-Feb-01 00:33N 34°37' E 135°07'5 4.7
2016-Jan-31 23:33N 34°40' E 135°12'1212.0
2016-Jan-31 22:34N 34°34' E 135°24'5 4.8
2016-Jan-31 21:33N 34°34' E 135°18'9 8.6
2016-Jan-31 20:33N 34°39' E 135°10'4 0.4
2016-Jan-31 11:34N 34°36' E 135°08'1514.5
2016-Jan-31 10:31N 34°22' E 134°59'1 0.9
2016-Jan-31 09:31N 34°21' E 134°58'1313.5
2016-Jan-31 08:32N 34°33' E 135°06'9 0.3
2016-Jan-29 21:25N 34°37' E 134°57'910.1
2016-Jan-29 20:33N 34°35' E 135°07'10 9.4
2016-Jan-29 19:29N 34°25' E 135°03'1111.9
2016-Jan-29 18:33N 34°14' E 134°59'5 5.0
2016-Jan-29 17:34N 34°12' E 135°04'4 0.4
2016-Jan-29 05:29N 34°13' E 135°09'10 9.2
2016-Jan-29 04:25N 34°18' E 134°58'1113.0
2016-Jan-29 03:33N 34°28' E 135°02'8 8.3
2016-Jan-29 02:33N 34°37' E 135°01'6 1.4
2016-Jan-28 22:11N 34°37' E 134°54'913.7
2016-Jan-28 21:33N 34°37' E 135°04'5 0.4
2016-Jan-28 08:28N 34°39' E 135°10'1212.7
2016-Jan-28 07:31N 34°36' E 134°56'0 0.1
2016-Jan-28 01:24N 34°36' E 134°55'1011.5
2016-Jan-28 00:33N 34°34' E 135°07'6 6.0
2016-Jan-27 23:31N 34°29' E 135°05'1513.0
2016-Jan-27 22:24N 34°15' E 134°59'1 1.1
2016-Jan-27 21:33N 34°15' E 135°00'1413.6
2016-Jan-27 20:32N 34°28' E 135°03'1212.5
2016-Jan-27 19:33N 34°39' E 135°10'  
Track history (hours):
 
Tides and Currents Weather Stations Pressure Air Temp Water Temp Dewpoint Dewpoint Depression Visibility Wind Speed Wind Dir Waves Ship Positions

Naikai2

Last reported at 2016-Feb-06 04:25 UTC. Time now 2016-Feb-08 12:30 UTC.
Position N 34°39' E 135°10'.

Length 28 m; draft 2.2 m.

Type: Other ship. MMSI: 431000283.

Date/timePositionNaut miles runAvg speedWind from/ knotsBaromVisibWave heightAir tempDewpointWater temp
2016-Feb-06 04:25N 34°39' E 135°10'1214.4
2016-Feb-06 03:33N 34°27' E 135°05'1110.7
2016-Feb-06 02:30N 34°17' E 134°58'1313.7
2016-Feb-06 01:33N 34°27' E 135°08'1312.5
2016-Feb-06 00:33N 34°33' E 135°21'1 1.4
2016-Feb-05 23:33N 34°34' E 135°23'1111.6
2016-Feb-05 22:33N 34°39' E 135°10'4 0.3
2016-Feb-05 07:33N 34°35' E 135°09'1914.8
2016-Feb-05 06:18N 34°18' E 134°60'6 6.3
2016-Feb-05 05:24N 34°23' E 135°02'1315.7
2016-Feb-05 04:33N 34°31' E 135°15'7 7.4
2016-Feb-05 03:33N 34°33' E 135°24'2 0.6
2016-Feb-05 00:15N 34°31' E 135°24'3 3.6
2016-Feb-04 23:31N 34°33' E 135°22'9 9.8
2016-Feb-04 22:33N 34°29' E 135°12'1812.7
2016-Feb-04 21:09N 34°15' E 134°59'2 3.8
2016-Feb-04 20:33N 34°13' E 134°60'1312.7
2016-Feb-04 19:33N 34°25' E 135°02'1413.9
2016-Feb-04 18:33N 34°38' E 135°09'1 0.1
2016-Feb-04 04:26N 34°39' E 135°10'5 5.8
2016-Feb-04 03:33N 34°38' E 135°16'9 4.4
2016-Feb-04 01:32N 34°29' E 135°13'1813.4
2016-Feb-04 00:11N 34°15' E 134°59'2 1.8
2016-Feb-03 23:06N 34°17' E 134°58'814.0
2016-Feb-03 22:32N 34°25' E 135°02'1414.0
2016-Feb-03 21:33N 34°37' E 135°09'2 0.0
2016-Feb-01 19:30N 34°39' E 135°10'1212.2
2016-Feb-01 18:32N 34°37' E 134°56'9 9.6
2016-Feb-01 17:33N 34°35' E 135°07'5 5.0
2016-Feb-01 16:33N 34°39' E 135°10'7 0.7
2016-Feb-01 05:30N 34°36' E 135°02'1 1.5
2016-Feb-01 04:31N 34°38' E 135°01'2 2.2
2016-Feb-01 03:33N 34°38' E 135°03'0 0.0
2016-Feb-01 02:33N 34°38' E 135°03'0 0.0
2016-Feb-01 01:33N 34°38' E 135°03'3 3.0
2016-Feb-01 00:33N 34°37' E 135°07'5 4.7
2016-Jan-31 23:33N 34°40' E 135°12'1212.0
2016-Jan-31 22:34N 34°34' E 135°24'5 4.8
2016-Jan-31 21:33N 34°34' E 135°18'9 8.6
2016-Jan-31 20:33N 34°39' E 135°10'4 0.4
2016-Jan-31 11:34N 34°36' E 135°08'1514.5
2016-Jan-31 10:31N 34°22' E 134°59'1 0.9
2016-Jan-31 09:31N 34°21' E 134°58'1313.5
2016-Jan-31 08:32N 34°33' E 135°06'9 0.3
2016-Jan-29 21:25N 34°37' E 134°57'910.1
2016-Jan-29 20:33N 34°35' E 135°07'10 9.4
2016-Jan-29 19:29N 34°25' E 135°03'1111.9
2016-Jan-29 18:33N 34°14' E 134°59'5 5.0
2016-Jan-29 17:34N 34°12' E 135°04'4 0.4
2016-Jan-29 05:29N 34°13' E 135°09'10 9.2
2016-Jan-29 04:25N 34°18' E 134°58'1113.0
2016-Jan-29 03:33N 34°28' E 135°02'8 8.3
2016-Jan-29 02:33N 34°37' E 135°01'6 1.4
2016-Jan-28 22:11N 34°37' E 134°54'913.7
2016-Jan-28 21:33N 34°37' E 135°04'5 0.4
2016-Jan-28 08:28N 34°39' E 135°10'1212.7
2016-Jan-28 07:31N 34°36' E 134°56'0 0.1
2016-Jan-28 01:24N 34°36' E 134°55'1011.5
2016-Jan-28 00:33N 34°34' E 135°07'6 6.0
2016-Jan-27 23:31N 34°29' E 135°05'1513.0
2016-Jan-27 22:24N 34°15' E 134°59'1 1.1
2016-Jan-27 21:33N 34°15' E 135°00'1413.6
2016-Jan-27 20:32N 34°28' E 135°03'1212.5
2016-Jan-27 19:33N 34°39' E 135°10'  

Dump ship's entire track history